createdAt,value
2023-12-30T00:00:42.126Z,68112.13
2023-12-30T00:03:09.276Z,68104.59
2023-12-30T00:05:36.381Z,68098.38
2023-12-30T00:08:03.727Z,68101.56
2023-12-30T00:10:32.227Z,68101.94
2023-12-30T00:13:00.534Z,68101.94
2023-12-30T00:15:27.855Z,68096.28
2023-12-30T00:17:55.049Z,68087.44
2023-12-30T00:20:22.238Z,68082.53
2023-12-30T00:22:49.473Z,68092.50
2023-12-30T00:25:17.628Z,68077.81
2023-12-30T00:27:44.842Z,68079.88
2023-12-30T00:30:14.209Z,68085.91
2023-12-30T00:32:42.114Z,68082.72
2023-12-30T00:35:09.924Z,68074.41
2023-12-30T00:37:37.037Z,68064.97
2023-12-30T00:40:04.375Z,68058.19
2023-12-30T00:42:31.456Z,68054.81
2023-12-30T00:44:58.736Z,68058.75
2023-12-30T00:47:26.364Z,68056.31
2023-12-30T00:49:53.803Z,68062.53
2023-12-30T00:52:21.932Z,68073.84
2023-12-30T00:54:51.288Z,68070.63
2023-12-30T00:57:18.886Z,68061.03
2023-12-30T00:59:46.033Z,68058.59
2023-12-30T01:02:13.711Z,68078.75
2023-12-30T01:04:40.868Z,68073.28
2023-12-30T01:07:08.051Z,68070.06
2023-12-30T01:09:35.394Z,68064.25
2023-12-30T01:12:02.737Z,68058.56
2023-12-30T01:14:30.899Z,68053.47
2023-12-30T01:16:57.978Z,68058.00
2023-12-30T01:19:26.144Z,68054.81
2023-12-30T01:21:53.845Z,68076.69
2023-12-30T01:24:20.969Z,68080.84
2023-12-30T01:26:48.045Z,68069.91
2023-12-30T01:29:15.127Z,68064.63
2023-12-30T01:31:42.412Z,68061.41
2023-12-30T01:34:10.078Z,68061.97
2023-12-30T01:36:37.231Z,68081.56
2023-12-30T01:39:04.811Z,68084.22
2023-12-30T01:41:32.799Z,68097.78
2023-12-30T01:43:59.886Z,68106.66
2023-12-30T01:46:27.507Z,68097.78
2023-12-30T01:48:54.868Z,68102.50
2023-12-30T01:51:25.218Z,68106.47
2023-12-30T01:53:56.498Z,68112.69
2023-12-30T01:56:26.058Z,68109.50
2023-12-30T01:58:53.856Z,68107.22
2023-12-30T02:01:27.780Z,68066.50
2023-12-30T02:03:54.976Z,68020.50
2023-12-30T02:06:22.385Z,68003.50
2023-12-30T02:08:49.770Z,67987.69
2023-12-30T02:11:17.297Z,67980.53
2023-12-30T02:13:45.489Z,67975.81
2023-12-30T02:16:13.069Z,67960.91
2023-12-30T02:18:40.320Z,67939.81
2023-12-30T02:21:07.937Z,67924.56
2023-12-30T02:23:35.368Z,67922.13
2023-12-30T02:26:03.145Z,67924.56
2023-12-30T02:28:30.209Z,67926.63
2023-12-30T02:30:57.571Z,67930.03
2023-12-30T02:33:25.233Z,67936.25
2023-12-30T02:35:53.043Z,67930.41
2023-12-30T02:38:20.130Z,67949.44
2023-12-30T02:40:47.570Z,67946.03
2023-12-30T02:43:14.883Z,67943.38
2023-12-30T02:45:41.998Z,67940.97
2023-12-30T02:48:09.951Z,67941.88
2023-12-30T02:50:37.122Z,67959.78
2023-12-30T02:53:04.455Z,67947.34
2023-12-30T02:55:31.640Z,67947.16
2023-12-30T02:57:59.237Z,67950.38
2023-12-30T03:00:26.331Z,67950.56
2023-12-30T03:02:54.420Z,67950.94
2023-12-30T03:05:21.770Z,67957.16
2023-12-30T03:07:48.972Z,67953.97
2023-12-30T03:10:16.542Z,67940.59
2023-12-30T03:12:43.741Z,67941.72
2023-12-30T03:15:10.787Z,67941.16
2023-12-30T03:17:37.990Z,67931.13
2023-12-30T03:20:06.065Z,67936.25
2023-12-30T03:22:34.104Z,67936.63
2023-12-30T03:25:01.281Z,67934.16
2023-12-30T03:27:28.415Z,67927.97
2023-12-30T03:29:55.494Z,67932.47
2023-12-30T03:32:22.598Z,67932.69
2023-12-30T03:34:50.803Z,67939.25
2023-12-30T03:37:18.043Z,67934.00
2023-12-30T03:39:45.169Z,67943.22
2023-12-30T03:42:12.276Z,67953.19
2023-12-30T03:44:39.443Z,67948.88
2023-12-30T03:47:06.549Z,67952.28
2023-12-30T03:49:35.181Z,67961.13
2023-12-30T03:52:02.486Z,67970.16
2023-12-30T03:54:29.609Z,67979.19
2023-12-30T03:56:56.856Z,67979.19
2023-12-30T03:59:24.075Z,67971.28
2023-12-30T04:01:51.829Z,67916.09
2023-12-30T04:04:19.023Z,67887.47
2023-12-30T04:06:46.123Z,67854.69
2023-12-30T04:09:13.188Z,67848.06
2023-12-30T04:11:40.360Z,67834.34
2023-12-30T04:14:07.536Z,67817.41
2023-12-30T04:16:34.753Z,67809.50
2023-12-30T04:19:01.996Z,67814.19
2023-12-30T04:21:29.229Z,67836.97
2023-12-30T04:23:56.307Z,67825.88
2023-12-30T04:26:23.572Z,67824.53
2023-12-30T04:28:50.760Z,67827.16
2023-12-30T04:31:18.445Z,67816.28
2023-12-30T04:33:45.637Z,67831.50
2023-12-30T04:36:12.997Z,67831.88
2023-12-30T04:38:43.580Z,67828.69
2023-12-30T04:41:11.975Z,67859.03
2023-12-30T04:43:39.193Z,67859.94
2023-12-30T04:46:06.484Z,67873.50
2023-12-30T04:48:33.829Z,67854.13
2023-12-30T04:51:01.027Z,67866.75
2023-12-30T04:53:28.159Z,67850.75
2023-12-30T04:55:55.257Z,67857.31
2023-12-30T04:58:22.496Z,67850.56
2023-12-30T05:00:49.867Z,67842.63
2023-12-30T05:03:17.992Z,67843.56
2023-12-30T05:05:45.260Z,67841.50
2023-12-30T05:08:12.452Z,67844.31
2023-12-30T05:10:39.668Z,67833.75
2023-12-30T05:13:07.492Z,67833.78
2023-12-30T05:15:34.823Z,67840.72
2023-12-30T05:18:02.304Z,67849.75
2023-12-30T05:20:29.534Z,67859.19
2023-12-30T05:23:00.960Z,67853.94
2023-12-30T05:25:28.197Z,67858.66
2023-12-30T05:27:55.539Z,67867.50
2023-12-30T05:30:23.262Z,67869.00
2023-12-30T05:32:50.384Z,67857.91
2023-12-30T05:35:18.248Z,67855.84
2023-12-30T05:37:45.285Z,67859.22
2023-12-30T05:40:12.746Z,67868.81
2023-12-30T05:42:39.831Z,67859.22
2023-12-30T05:45:07.604Z,67868.63
2023-12-30T05:47:34.767Z,67861.47
2023-12-30T05:50:02.165Z,67860.94
2023-12-30T05:52:29.852Z,67862.41
2023-12-30T05:54:57.145Z,67861.84
2023-12-30T05:57:24.400Z,67875.03
2023-12-30T05:59:51.482Z,67875.03
2023-12-30T06:02:18.577Z,67876.72
2023-12-30T06:04:45.700Z,67876.34
2023-12-30T06:07:13.338Z,67874.28
2023-12-30T06:09:40.451Z,67867.88
2023-12-30T06:12:07.736Z,67862.41
2023-12-30T06:14:36.265Z,67860.16
2023-12-30T06:17:04.292Z,67859.94
2023-12-30T06:19:33.933Z,67857.69
2023-12-30T06:22:01.409Z,67854.50
2023-12-30T06:24:28.532Z,67855.84
2023-12-30T06:26:55.659Z,67854.69
2023-12-30T06:29:22.873Z,67852.44
2023-12-30T06:31:51.083Z,67857.69
2023-12-30T06:34:18.471Z,67859.59
2023-12-30T06:36:46.547Z,67861.84
2023-12-30T06:39:14.447Z,67857.69
2023-12-30T06:41:41.672Z,67845.06
2023-12-30T06:44:09.596Z,67842.63
2023-12-30T06:46:36.837Z,67846.38
2023-12-30T06:49:04.082Z,67844.13
2023-12-30T06:51:31.219Z,67839.22
2023-12-30T06:53:58.289Z,67846.56
2023-12-30T06:56:25.488Z,67839.78
2023-12-30T06:58:53.205Z,67836.97
2023-12-30T07:01:25.358Z,67835.84
2023-12-30T07:03:53.000Z,67837.91
2023-12-30T07:06:20.120Z,67831.88
2023-12-30T07:08:47.184Z,67824.75
2023-12-30T07:11:14.288Z,67827.94
2023-12-30T07:13:41.506Z,67817.97
2023-12-30T07:16:08.756Z,67825.13
2023-12-30T07:18:36.138Z,67826.03
2023-12-30T07:21:04.128Z,67817.41
2023-12-30T07:23:31.202Z,67816.84
2023-12-30T07:25:58.486Z,67809.88
2023-12-30T07:28:25.599Z,67810.25
2023-12-30T07:30:52.804Z,67809.66
2023-12-30T07:33:20.048Z,67806.88
2023-12-30T07:35:47.215Z,67816.63
2023-12-30T07:38:14.506Z,67810.81
2023-12-30T07:40:41.686Z,67806.47
2023-12-30T07:43:09.709Z,67811.56
2023-12-30T07:45:36.896Z,67807.03
2023-12-30T07:48:04.353Z,67810.44
2023-12-30T07:50:31.543Z,67807.44
2023-12-30T07:52:58.664Z,67816.25
2023-12-30T07:55:25.883Z,67798.41
2023-12-30T07:57:53.337Z,67795.94
2023-12-30T08:00:20.589Z,67795.75
2023-12-30T08:02:47.725Z,67792.19
2023-12-30T08:05:14.891Z,67806.06
2023-12-30T08:07:42.104Z,67811.56
2023-12-30T08:10:09.384Z,67822.28
2023-12-30T08:12:37.851Z,67821.16
2023-12-30T08:15:05.901Z,67819.66
2023-12-30T08:17:33.085Z,67811.38
2023-12-30T08:20:00.140Z,67810.44
2023-12-30T08:22:27.323Z,67806.09
2023-12-30T08:24:55.293Z,67808.19
2023-12-30T08:27:22.575Z,67813.06
2023-12-30T08:29:49.862Z,67811.00
2023-12-30T08:32:16.928Z,67815.88
2023-12-30T08:34:44.053Z,67809.50
2023-12-30T08:37:11.296Z,67818.34
2023-12-30T08:39:39.153Z,67815.16
2023-12-30T08:42:06.949Z,67819.47
2023-12-30T08:44:34.213Z,67822.69
2023-12-30T08:47:01.336Z,67838.47
2023-12-30T08:49:28.549Z,67854.88
2023-12-30T08:51:55.782Z,67865.59
2023-12-30T08:54:22.964Z,67855.66
2023-12-30T08:56:51.954Z,67844.50
2023-12-30T08:59:19.348Z,67849.63
2023-12-30T09:01:46.512Z,67853.03
2023-12-30T09:04:13.861Z,67848.06
2023-12-30T09:06:40.990Z,67841.50
2023-12-30T09:09:08.076Z,67835.47
2023-12-30T09:11:39.105Z,67833.22
2023-12-30T09:14:06.603Z,67832.47
2023-12-30T09:16:34.412Z,67831.88
2023-12-30T09:19:02.081Z,67836.22
2023-12-30T09:21:30.767Z,67840.16
2023-12-30T09:23:58.401Z,67839.78
2023-12-30T09:26:26.512Z,67845.06
2023-12-30T09:28:54.159Z,67855.06
2023-12-30T09:31:21.629Z,67847.38
2023-12-30T09:33:50.312Z,67853.03
2023-12-30T09:36:18.778Z,67864.47
2023-12-30T09:38:45.885Z,67862.22
2023-12-30T09:41:14.602Z,67868.44
2023-12-30T09:43:43.266Z,67897.06
2023-12-30T09:46:10.889Z,67945.47
2023-12-30T09:48:40.731Z,67947.72
2023-12-30T09:51:08.523Z,67948.31
2023-12-30T09:53:35.502Z,67943.41
2023-12-30T09:56:03.814Z,67947.16
2023-12-30T09:58:32.640Z,67959.44
2023-12-30T10:01:00.024Z,67945.88
2023-12-30T10:03:29.631Z,67956.00
2023-12-30T10:06:00.729Z,67959.81
2023-12-30T10:08:31.124Z,67973.75
2023-12-30T10:10:58.584Z,67951.13
2023-12-30T10:13:28.630Z,67960.94
2023-12-30T10:15:59.931Z,67955.66
2023-12-30T10:18:27.385Z,67939.25
2023-12-30T10:20:55.063Z,67932.13
2023-12-30T10:23:22.749Z,67932.66
2023-12-30T10:25:49.934Z,67924.41
2023-12-30T10:28:17.713Z,67926.09
2023-12-30T10:30:44.885Z,67937.94
2023-12-30T10:33:14.009Z,67933.41
2023-12-30T10:35:45.467Z,67946.03
2023-12-30T10:38:14.889Z,67951.50
2023-12-30T10:40:42.410Z,67950.56
2023-12-30T10:43:10.522Z,67951.13
2023-12-30T10:45:38.518Z,67954.91
2023-12-30T10:48:09.410Z,67941.34
2023-12-30T10:50:42.496Z,67932.69
2023-12-30T10:53:17.113Z,67929.50
2023-12-30T10:55:52.094Z,67939.63
2023-12-30T10:58:21.478Z,67938.69
2023-12-30T11:00:54.238Z,67938.13
2023-12-30T11:03:22.771Z,67949.25
2023-12-30T11:06:28.746Z,67943.97
2023-12-30T11:09:09.855Z,67946.03
2023-12-30T11:11:53.847Z,67940.41
2023-12-30T11:14:21.696Z,67943.97
2023-12-30T11:16:52.281Z,67933.22
2023-12-30T11:19:27.092Z,67932.47
2023-12-30T11:21:55.969Z,67924.00
2023-12-30T11:24:23.738Z,67925.69
2023-12-30T11:26:53.946Z,67919.13
2023-12-30T11:29:29.359Z,67910.44
2023-12-30T11:31:59.985Z,67896.31
2023-12-30T11:34:27.975Z,67878.81
2023-12-30T11:36:58.963Z,67867.50
2023-12-30T11:39:33.140Z,67864.09
2023-12-30T11:42:01.472Z,67860.72
2023-12-30T11:44:29.091Z,67859.59
2023-12-30T11:46:57.817Z,67861.84
2023-12-30T11:49:26.496Z,67862.63
2023-12-30T11:52:05.318Z,67866.19
2023-12-30T11:54:37.148Z,67862.97
2023-12-30T11:57:07.814Z,67860.72
2023-12-30T11:59:34.998Z,67859.94
2023-12-30T12:02:15.809Z,67860.16
2023-12-30T12:04:43.449Z,67854.50
2023-12-30T12:07:12.133Z,67847.94
2023-12-30T12:09:41.587Z,67846.56
2023-12-30T12:12:08.990Z,67840.38
2023-12-30T12:14:36.451Z,67828.16
2023-12-30T12:17:07.116Z,67835.09
2023-12-30T12:19:37.038Z,67843.00
2023-12-30T12:22:04.356Z,67844.50
2023-12-30T12:24:32.900Z,67849.06
2023-12-30T12:27:00.025Z,67854.50
2023-12-30T12:29:27.158Z,67852.81
2023-12-30T12:31:54.723Z,67850.00
2023-12-30T12:34:26.863Z,67847.50
2023-12-30T12:36:54.906Z,67838.88
2023-12-30T12:39:22.237Z,67841.50
2023-12-30T12:41:49.643Z,67844.88
2023-12-30T12:44:16.880Z,67840.78
2023-12-30T12:46:44.111Z,67844.88
2023-12-30T12:49:11.372Z,67850.56
2023-12-30T12:51:40.633Z,67852.63
2023-12-30T12:54:07.970Z,67850.75
2023-12-30T12:56:35.473Z,67853.03
2023-12-30T12:59:02.531Z,67858.47
2023-12-30T13:01:30.083Z,67865.59
2023-12-30T13:03:59.319Z,67859.22
2023-12-30T13:06:26.657Z,67864.28
2023-12-30T13:08:57.122Z,67869.75
2023-12-30T13:11:28.356Z,67880.28
2023-12-30T13:13:56.311Z,67885.38
2023-12-30T13:16:24.922Z,67887.84
2023-12-30T13:18:52.239Z,67889.53
2023-12-30T13:21:19.626Z,67898.00
2023-12-30T13:23:50.552Z,67904.03
2023-12-30T13:26:19.719Z,67907.63
2023-12-30T13:28:47.382Z,67908.38
2023-12-30T13:31:18.984Z,67911.75
2023-12-30T13:33:46.527Z,67923.22
2023-12-30T13:36:14.089Z,67914.03
2023-12-30T13:38:45.024Z,67926.63
2023-12-30T13:41:12.415Z,67922.13
2023-12-30T13:43:39.578Z,67920.97
2023-12-30T13:46:26.657Z,67928.31
2023-12-30T13:49:13.047Z,67922.84
2023-12-30T13:51:45.666Z,67928.88
2023-12-30T13:54:13.236Z,67925.88
2023-12-30T13:56:43.576Z,67927.97
2023-12-30T13:59:13.191Z,67928.16
2023-12-30T14:01:40.643Z,67930.22
2023-12-30T14:04:08.852Z,67923.63
2023-12-30T14:06:39.322Z,67937.94
2023-12-30T14:09:32.701Z,67931.53
2023-12-30T14:12:06.848Z,67935.31
2023-12-30T14:14:46.122Z,67939.06
2023-12-30T14:17:15.170Z,67934.94
2023-12-30T14:19:43.418Z,67938.13
2023-12-30T14:22:10.999Z,67934.38
2023-12-30T14:24:38.427Z,67941.34
2023-12-30T14:27:05.617Z,67939.44
2023-12-30T14:29:32.750Z,67938.50
2023-12-30T14:31:59.862Z,67934.16
2023-12-30T14:34:27.327Z,67937.94
2023-12-30T14:36:54.539Z,67929.28
2023-12-30T14:39:22.941Z,67922.13
2023-12-30T14:41:50.156Z,67925.13
2023-12-30T14:44:17.678Z,67922.50
2023-12-30T14:46:45.255Z,67914.03
2023-12-30T14:49:13.572Z,67912.13
2023-12-30T14:51:40.795Z,67901.03
2023-12-30T14:54:07.858Z,67901.19
2023-12-30T14:56:35.438Z,67894.25
2023-12-30T14:59:02.865Z,67897.06
2023-12-30T15:01:30.136Z,67899.13
2023-12-30T15:04:00.837Z,67897.81
2023-12-30T15:06:28.663Z,67890.09
2023-12-30T15:08:57.511Z,67885.97
2023-12-30T15:11:24.607Z,67887.84
2023-12-30T15:13:53.016Z,67877.28
2023-12-30T15:16:21.381Z,67868.25
2023-12-30T15:18:48.647Z,67869.75
2023-12-30T15:21:16.543Z,67862.97
2023-12-30T15:23:43.695Z,67865.03
2023-12-30T15:26:11.090Z,67855.84
2023-12-30T15:28:38.501Z,67855.06
2023-12-30T15:31:05.912Z,67852.25
2023-12-30T15:33:33.346Z,67844.88
2023-12-30T15:36:03.836Z,67838.47
2023-12-30T15:38:32.836Z,67838.88
2023-12-30T15:41:00.676Z,67837.91
2023-12-30T15:43:30.204Z,67826.44
2023-12-30T15:45:57.265Z,67827.56
2023-12-30T15:48:25.569Z,67832.06
2023-12-30T15:50:52.766Z,67823.63
2023-12-30T15:53:20.538Z,67819.09
2023-12-30T15:55:48.624Z,67822.50
2023-12-30T15:58:15.851Z,67826.03
2023-12-30T16:00:43.054Z,67825.50
2023-12-30T16:03:12.837Z,67814.75
2023-12-30T16:05:41.627Z,67822.13
2023-12-30T16:08:10.770Z,67822.66
2023-12-30T16:10:38.137Z,67814.00
2023-12-30T16:13:08.250Z,67811.72
2023-12-30T16:15:37.821Z,67811.19
2023-12-30T16:18:06.152Z,67815.16
2023-12-30T16:20:33.465Z,67813.63
2023-12-30T16:23:05.073Z,67822.50
2023-12-30T16:25:32.728Z,67821.72
2023-12-30T16:27:59.990Z,67825.88
2023-12-30T16:30:27.178Z,67828.31
2023-12-30T16:32:54.785Z,67821.91
2023-12-30T16:35:22.117Z,67817.97
2023-12-30T16:37:50.572Z,67804.22
2023-12-30T16:40:17.773Z,67793.69
2023-12-30T16:42:44.966Z,67789.91
2023-12-30T16:45:12.114Z,67786.50
2023-12-30T16:47:41.365Z,67772.63
2023-12-30T16:50:08.767Z,67763.97
2023-12-30T16:52:37.061Z,67752.47
2023-12-30T16:55:04.693Z,67745.16
2023-12-30T16:57:31.817Z,67748.72
2023-12-30T16:59:58.880Z,67735.34
2023-12-30T17:02:26.467Z,67746.25
2023-12-30T17:04:53.619Z,67740.81
2023-12-30T17:07:20.714Z,67732.91
2023-12-30T17:09:47.782Z,67728.94
2023-12-30T17:12:14.851Z,67731.25
2023-12-30T17:14:43.212Z,67739.31
2023-12-30T17:17:10.342Z,67747.00
2023-12-30T17:19:37.699Z,67744.78
2023-12-30T17:22:04.944Z,67763.75
2023-12-30T17:24:32.076Z,67757.38
2023-12-30T17:27:02.413Z,67751.91
2023-12-30T17:29:30.631Z,67757.16
2023-12-30T17:31:58.720Z,67758.50
2023-12-30T17:34:26.220Z,67773.72
2023-12-30T17:36:53.309Z,67780.88
2023-12-30T17:39:20.371Z,67764.91
2023-12-30T17:41:47.573Z,67770.00
2023-12-30T17:44:15.219Z,67775.44
2023-12-30T17:46:42.319Z,67780.88
2023-12-30T17:49:10.077Z,67784.47
2023-12-30T17:51:38.163Z,67784.09
2023-12-30T17:54:05.304Z,67785.41
2023-12-30T17:56:32.348Z,67781.84
2023-12-30T17:58:59.534Z,67782.00
2023-12-30T18:01:26.779Z,67769.22
2023-12-30T18:03:53.911Z,67761.66
2023-12-30T18:06:21.385Z,67762.44
2023-12-30T18:08:48.464Z,67740.25
2023-12-30T18:11:15.604Z,67745.31
2023-12-30T18:13:43.105Z,67740.22
2023-12-30T18:16:10.471Z,67738.38
2023-12-30T18:18:37.878Z,67740.22
2023-12-30T18:21:05.142Z,67738.75
2023-12-30T18:23:32.271Z,67730.47
2023-12-30T18:25:59.341Z,67735.16
2023-12-30T18:28:26.430Z,67726.13
2023-12-30T18:30:54.305Z,67724.06
2023-12-30T18:33:21.426Z,67723.69
2023-12-30T18:35:48.452Z,67719.56
2023-12-30T18:38:15.504Z,67736.66
2023-12-30T18:40:44.287Z,67729.16
2023-12-30T18:43:12.783Z,67729.34
2023-12-30T18:45:41.527Z,67734.59
2023-12-30T18:48:09.950Z,67716.16
2023-12-30T18:50:37.929Z,67703.94
2023-12-30T18:53:05.226Z,67722.72
2023-12-30T18:55:33.932Z,67716.53
2023-12-30T18:58:01.241Z,67705.66
2023-12-30T19:00:28.515Z,67714.28
2023-12-30T19:02:56.116Z,67713.34
2023-12-30T19:05:23.302Z,67715.03
2023-12-30T19:07:50.483Z,67717.09
2023-12-30T19:10:17.755Z,67717.31
2023-12-30T19:12:45.850Z,67728.38
2023-12-30T19:15:13.009Z,67727.44
2023-12-30T19:17:40.561Z,67730.28
2023-12-30T19:20:08.437Z,67721.81
2023-12-30T19:22:35.513Z,67717.50
2023-12-30T19:25:03.782Z,67728.59
2023-12-30T19:27:31.411Z,67726.91
2023-12-30T19:29:58.585Z,67718.78
2023-12-30T19:32:25.666Z,67662.59
2023-12-30T19:34:52.753Z,67694.94
2023-12-30T19:37:21.058Z,67715.19
2023-12-30T19:39:48.200Z,67687.41
2023-12-30T19:42:15.462Z,67722.19
2023-12-30T19:44:42.576Z,67722.72
2023-12-30T19:47:09.722Z,67715.03
2023-12-30T19:49:36.871Z,67710.72
2023-12-30T19:52:04.140Z,67719.75
2023-12-30T19:54:31.278Z,67725.94
2023-12-30T19:56:58.793Z,67735.72
2023-12-30T19:59:26.466Z,67728.22
2023-12-30T20:01:53.604Z,67724.06
2023-12-30T20:04:20.978Z,67734.78
2023-12-30T20:06:50.112Z,67731.25
2023-12-30T20:09:17.179Z,67741.91
2023-12-30T20:11:46.009Z,67747.00
2023-12-30T20:14:16.303Z,67743.63
2023-12-30T20:16:43.713Z,67741.22
2023-12-30T20:19:12.382Z,67749.66
2023-12-30T20:21:41.303Z,67746.84
2023-12-30T20:24:09.996Z,67756.25
2023-12-30T20:26:37.490Z,67770.16
2023-12-30T20:29:04.577Z,67766.97
2023-12-30T20:31:31.811Z,67754.16
2023-12-30T20:33:59.343Z,67763.56
2023-12-30T20:36:27.122Z,67760.59
2023-12-30T20:38:55.465Z,67775.63
2023-12-30T20:41:22.556Z,67766.59
2023-12-30T20:43:49.706Z,67775.44
2023-12-30T20:46:16.886Z,67759.06
2023-12-30T20:48:44.914Z,67766.75
2023-12-30T20:51:12.318Z,67760.41
2023-12-30T20:53:39.669Z,67763.94
2023-12-30T20:56:06.922Z,67772.97
2023-12-30T20:58:34.107Z,67764.69
2023-12-30T21:01:01.244Z,67764.34
2023-12-30T21:03:30.485Z,67758.50
2023-12-30T21:05:58.465Z,67752.47
2023-12-30T21:08:25.540Z,67769.78
2023-12-30T21:10:52.780Z,67772.63
2023-12-30T21:13:20.945Z,67764.69
2023-12-30T21:15:48.273Z,67758.09
2023-12-30T21:18:15.922Z,67741.00
2023-12-30T21:20:43.082Z,67752.28
2023-12-30T21:23:10.198Z,67741.38
2023-12-30T21:25:37.331Z,67739.50
2023-12-30T21:28:05.715Z,67737.97
2023-12-30T21:30:33.220Z,67737.59
2023-12-30T21:33:00.935Z,67741.00
2023-12-30T21:35:28.111Z,67736.88
2023-12-30T21:37:55.131Z,67753.22
2023-12-30T21:40:23.187Z,67753.78
2023-12-30T21:42:50.252Z,67759.25
2023-12-30T21:45:18.394Z,67749.44
2023-12-30T21:47:45.780Z,67749.09
2023-12-30T21:50:13.476Z,67744.03
2023-12-30T21:52:43.654Z,67734.78
2023-12-30T21:55:11.134Z,67738.19
2023-12-30T21:57:39.775Z,67726.69
2023-12-30T22:00:07.651Z,67730.28
2023-12-30T22:02:35.285Z,67732.91
2023-12-30T22:05:02.478Z,67735.72
2023-12-30T22:07:29.693Z,67732.13
2023-12-30T22:09:57.178Z,67720.28
2023-12-30T22:12:24.237Z,67722.19
2023-12-30T22:14:51.865Z,67725.19
2023-12-30T22:17:18.947Z,67722.38
2023-12-30T22:19:48.355Z,67724.44
2023-12-30T22:22:15.536Z,67723.88
2023-12-30T22:24:42.736Z,67713.72
2023-12-30T22:27:09.846Z,67708.47
2023-12-30T22:29:36.996Z,67701.34
2023-12-30T22:32:04.396Z,67705.47
2023-12-30T22:34:31.741Z,67717.50
2023-12-30T22:36:59.193Z,67729.72
2023-12-30T22:39:26.305Z,67719.00
2023-12-30T22:41:54.196Z,67726.91
2023-12-30T22:44:22.746Z,67732.91
2023-12-30T22:46:50.019Z,67736.28
2023-12-30T22:49:17.350Z,67733.09
2023-12-30T22:51:48.740Z,67736.13
2023-12-30T22:54:16.744Z,67729.91
2023-12-30T22:56:44.872Z,67718.63
2023-12-30T22:59:19.165Z,67716.16
2023-12-30T23:01:46.388Z,67718.06
2023-12-30T23:04:14.124Z,67699.44
2023-12-30T23:06:41.446Z,67691.91
2023-12-30T23:09:08.500Z,67684.03
2023-12-30T23:11:35.654Z,67683.81
2023-12-30T23:14:02.832Z,67703.75
2023-12-30T23:16:30.025Z,67704.13
2023-12-30T23:18:57.841Z,67702.06
2023-12-30T23:21:32.433Z,67697.19
2023-12-30T23:23:59.838Z,67682.50
2023-12-30T23:26:27.019Z,67684.97
2023-12-30T23:28:54.886Z,67678.72
2023-12-30T23:31:22.069Z,67694.34
2023-12-30T23:33:49.202Z,67703.19
2023-12-30T23:36:16.442Z,67718.63
2023-12-30T23:38:43.606Z,67703.41
2023-12-30T23:41:10.703Z,67712.78
2023-12-30T23:43:38.067Z,67702.06
2023-12-30T23:46:05.129Z,67700.94
2023-12-30T23:48:32.267Z,67694.72
2023-12-30T23:50:59.337Z,67687.38
2023-12-30T23:53:26.479Z,67693.81
2023-12-30T23:55:53.719Z,67708.81
2023-12-30T23:58:20.886Z,67698.69
